»·PEaware :: CAP428 KVNY-KSBA

CAP428 :: KVNY-KSBA

FLIGHT INFORMATION

Flight Status: Arrived
Operator: Unknown
More flights by this operator :: More flights under this callsign
Pilot: Armando C. (16967)
Aircraft: CESSNA 182 SKYLANE
(C182)
More flights by this aircraft type
Origin: KVNY Van Nuys
United States
Destination: KSBA Santa Barbara Mun
United States
More flights between these airports :: More routes between these airports
Route: +CANOG2 FIM V186 DEANO V27 KWANG
File this flight plan on PilotEdge
Remarks:
Altitude:
(Current/Filed)
0ft
Speed:
(Current/Filed)
0kts
Departed: 28-Dec-17 12:42 PM
Arrived: 28-Dec-17 01:16 PM
Distance/Time
Traveled:
68nm/0:33
Distance/Time
To Go:
Arrived

Flight Plot

Page will automatically refresh every two minutes.


Map Options




Map Legend


Flown Route
Filed Route
Departure Airport
Arrival Airport
Navaid (VOR, NDB)
Fix

Horizontal Profiles

Position Reports

Time Latitude Longitude Heading Altitude Ground
Speed
28-Dec-17 12:33 34.205479 -118.492281 269 805ft 0kts
28-Dec-17 12:34 34.205479 -118.492282 269 805ft 0kts
28-Dec-17 12:35 34.205479 -118.492283 270 805ft 0kts
28-Dec-17 12:36 34.205479 -118.492284 270 805ft 0kts
28-Dec-17 12:37 34.205479 -118.492285 270 805ft 0kts
28-Dec-17 12:38 34.205479 -118.492286 270 805ft 0kts
28-Dec-17 12:39 34.205479 -118.492287 270 805ft 0kts
28-Dec-17 12:40 34.205479 -118.492288 270 805ft 0kts
28-Dec-17 12:41 34.205479 -118.492289 270 805ft 0kts
28-Dec-17 12:42 34.204948 -118.492162 93 805ft 0kts
28-Dec-17 12:43 34.204425 -118.491065 174 805ft 9kts
28-Dec-17 12:44 34.200167 -118.490381 181 805ft 11kts
28-Dec-17 12:45 34.196931 -118.490292 154 805ft 10kts
28-Dec-17 12:46 34.196790 -118.490098 97 805ft 0kts
28-Dec-17 12:47 34.197700 -118.489180 351 805ft 36kts
28-Dec-17 12:48 34.219273 -118.490352 344 1297ft 90kts
28-Dec-17 12:49 34.223528 -118.517126 265 2282ft 95kts
28-Dec-17 12:50 34.220397 -118.550020 265 3291ft 101kts
28-Dec-17 12:51 34.217729 -118.583608 283 4301ft 102kts
28-Dec-17 12:52 34.223064 -118.616573 273 5208ft 103kts
28-Dec-17 12:53 34.224839 -118.651660 279 5988ft 111kts
28-Dec-17 12:54 34.229390 -118.694789 278 6001ft 137kts
28-Dec-17 12:55 34.234068 -118.741168 278 5998ft 139kts
28-Dec-17 12:56 34.238731 -118.787781 278 5997ft 140kts
28-Dec-17 12:57 34.243399 -118.834484 277 5995ft 140kts
28-Dec-17 12:58 34.248091 -118.881731 278 6003ft 141kts
28-Dec-17 12:59 34.252713 -118.928561 278 6005ft 140kts
28-Dec-17 13:00 34.257324 -118.975270 278 6006ft 140kts
28-Dec-17 13:01 34.261922 -119.022002 278 6006ft 140kts
28-Dec-17 13:02 34.266481 -119.068765 278 6006ft 140kts
28-Dec-17 13:03 34.271048 -119.115597 278 6002ft 140kts
28-Dec-17 13:04 34.275595 -119.162394 278 6001ft 140kts
28-Dec-17 13:05 34.280106 -119.209198 277 5996ft 140kts
28-Dec-17 13:06 34.285106 -119.260667 277 5992ft 150kts
28-Dec-17 13:07 34.289707 -119.309212 278 6001ft 142kts
28-Dec-17 13:08 34.294254 -119.356685 278 6002ft 142kts
28-Dec-17 13:09 34.298774 -119.404224 278 6002ft 142kts
28-Dec-17 13:10 34.303257 -119.451808 278 6002ft 142kts
28-Dec-17 13:11 34.307752 -119.499423 278 6003ft 142kts
28-Dec-17 13:12 34.320164 -119.544352 294 6010ft 141kts
28-Dec-17 13:13 34.335656 -119.587999 295 6011ft 141kts
28-Dec-17 13:14 34.351345 -119.631231 298 5672ft 134kts
28-Dec-17 13:15 34.368095 -119.665131 296 4417ft 113kts
28-Dec-17 13:16 34.379883 -119.695891 298 3061ft 100kts
28-Dec-17 13:17 34.391509 -119.725708 292 1846ft 92kts
28-Dec-17 13:18 34.400332 -119.749744 290 1410ft 70kts
28-Dec-17 13:19 34.408345 -119.771393 292 1066ft 71kts
28-Dec-17 13:20 34.416599 -119.793808 291 713ft 74kts
28-Dec-17 13:21 34.425231 -119.816774 289 328ft 75kts
28-Dec-17 13:22 34.427837 -119.837253 266 13ft 8kts
28-Dec-17 13:23 34.427004 -119.837654 168 13ft 0kts
28-Dec-17 13:24 34.427004 -119.837654 168 13ft 0kts
28-Dec-17 13:25 34.427003 -119.837654 168 13ft 0kts
28-Dec-17 13:26 34.425366 -119.837110 165 13ft 13kts
28-Dec-17 13:27 34.422382 -119.836093 163 13ft 0kts
28-Dec-17 13:28 34.422382 -119.836093 163 13ft 0kts
28-Dec-17 13:29 34.422382 -119.836093 163 13ft 0kts
28-Dec-17 13:30 34.422382 -119.836093 163 13ft 0kts
28-Dec-17 13:31 34.422382 -119.836093 163 13ft 0kts
28-Dec-17 13:32 34.422382 -119.836093 163 13ft 0kts
28-Dec-17 13:33 34.422382 -119.836093 163 13ft 0kts
28-Dec-17 13:34 34.422382 -119.836093 163 13ft 0kts
28-Dec-17 13:35 34.422382 -119.836093 163 13ft 0kts
28-Dec-17 13:36 34.422382 -119.836093 163 13ft 0kts

Navigation Log

Ident Type
Flight plan parsing failed, navigation log unavailable